createdAt,value
2022-12-07T00:04:50.944Z,88.29
2022-12-07T00:09:54.557Z,88.27
2022-12-07T00:14:58.188Z,88.15
2022-12-07T00:20:02.213Z,88.18
2022-12-07T00:25:06.644Z,88.08
2022-12-07T00:30:10.860Z,88.04
2022-12-07T00:35:15.355Z,88.02
2022-12-07T00:40:19.144Z,87.86
2022-12-07T00:45:22.866Z,87.80
2022-12-07T00:50:26.697Z,88.07
2022-12-07T00:55:35.424Z,88.16
2022-12-07T01:00:41.730Z,88.03
2022-12-07T01:05:54.447Z,87.93
2022-12-07T01:11:04.520Z,87.88
2022-12-07T01:16:12.218Z,87.71
2022-12-07T01:21:26.911Z,87.95
2022-12-07T01:26:30.774Z,87.98
2022-12-07T01:31:35.310Z,87.97
2022-12-07T01:36:39.003Z,87.92
2022-12-07T01:41:44.806Z,87.85
2022-12-07T01:47:04.872Z,87.68
2022-12-07T01:52:45.428Z,87.69
2022-12-07T01:57:53.343Z,87.69
2022-12-07T02:03:10.913Z,87.67
2022-12-07T02:08:15.526Z,87.65
2022-12-07T02:13:32.903Z,87.68
2022-12-07T02:18:44.837Z,87.72
2022-12-07T02:24:33.617Z,87.71
2022-12-07T02:29:44.568Z,87.95
2022-12-07T02:35:05.026Z,87.81
2022-12-07T02:40:49.415Z,87.85
2022-12-07T02:45:59.609Z,88.22
2022-12-07T02:51:03.186Z,88.43
2022-12-07T02:56:40.089Z,88.39
2022-12-07T03:02:05.369Z,88.36
2022-12-07T03:07:31.378Z,88.15
2022-12-07T03:12:47.382Z,88.29
2022-12-07T03:17:53.820Z,88.36
2022-12-07T03:23:00.272Z,88.31
2022-12-07T03:28:08.795Z,88.28
2022-12-07T03:33:38.513Z,88.18
2022-12-07T03:38:58.602Z,88.14
2022-12-07T03:44:05.042Z,88.31
2022-12-07T03:49:08.935Z,88.36
2022-12-07T03:54:45.533Z,88.25
2022-12-07T03:59:49.857Z,88.27
2022-12-07T04:04:54.506Z,88.35
2022-12-07T04:09:59.049Z,88.34
2022-12-07T04:15:02.764Z,88.26
2022-12-07T04:20:08.228Z,88.21
2022-12-07T04:25:11.852Z,88.11
2022-12-07T04:30:16.393Z,88.25
2022-12-07T04:35:19.912Z,88.32
2022-12-07T04:40:23.735Z,88.37
2022-12-07T04:45:27.455Z,88.35
2022-12-07T04:50:31.177Z,88.39
2022-12-07T04:55:35.007Z,88.42
2022-12-07T05:00:39.377Z,88.48
2022-12-07T05:05:43.265Z,88.61
2022-12-07T05:10:46.891Z,88.56
2022-12-07T05:15:51.081Z,88.65
2022-12-07T05:20:54.946Z,88.64
2022-12-07T05:25:58.678Z,88.59
2022-12-07T05:31:02.598Z,88.64
2022-12-07T05:36:08.710Z,88.72
2022-12-07T05:41:35.640Z,88.71
2022-12-07T05:46:39.266Z,88.78
2022-12-07T05:51:43.394Z,88.71
2022-12-07T05:56:47.443Z,88.72
2022-12-07T06:02:11.238Z,88.69
2022-12-07T06:07:18.283Z,88.63
2022-12-07T06:12:39.654Z,88.70
2022-12-07T06:17:43.279Z,88.77
2022-12-07T06:22:47.039Z,88.77
2022-12-07T06:27:50.821Z,88.84
2022-12-07T06:32:54.445Z,88.93
2022-12-07T06:37:58.272Z,88.96
2022-12-07T06:43:01.987Z,89.07
2022-12-07T06:48:06.446Z,89.04
2022-12-07T06:53:10.982Z,89.13
2022-12-07T06:58:14.693Z,89.14
2022-12-07T07:03:19.093Z,89.12
2022-12-07T07:08:23.444Z,89.12
2022-12-07T07:13:28.742Z,89.13
2022-12-07T07:18:32.246Z,89.07
2022-12-07T07:23:36.172Z,89.13
2022-12-07T07:28:40.420Z,89.21
2022-12-07T07:33:44.028Z,89.24
2022-12-07T07:38:49.079Z,89.29
2022-12-07T07:43:52.804Z,89.33
2022-12-07T07:48:56.523Z,89.35
2022-12-07T07:54:00.132Z,89.31
2022-12-07T07:59:04.072Z,89.31
2022-12-07T08:04:07.999Z,89.33
2022-12-07T08:09:12.540Z,89.30
2022-12-07T08:14:16.341Z,89.22
2022-12-07T08:19:20.502Z,89.29
2022-12-07T08:24:26.371Z,89.32
2022-12-07T08:29:30.805Z,89.31
2022-12-07T08:34:34.434Z,89.29
2022-12-07T08:39:38.359Z,89.29
2022-12-07T08:44:41.956Z,89.30
2022-12-07T08:49:51.333Z,89.35
2022-12-07T08:54:55.056Z,89.40
2022-12-07T08:59:59.621Z,89.32
2022-12-07T09:05:04.244Z,89.24
2022-12-07T09:10:08.745Z,89.14
2022-12-07T09:15:12.414Z,89.05
2022-12-07T09:20:16.637Z,89.04
2022-12-07T09:25:20.666Z,88.88
2022-12-07T09:30:24.510Z,88.75
2022-12-07T09:35:28.642Z,88.61
2022-12-07T09:40:35.002Z,88.60
2022-12-07T09:45:43.196Z,88.55
2022-12-07T09:50:51.489Z,88.50
2022-12-07T09:55:56.760Z,88.42
2022-12-07T10:01:16.643Z,88.35
2022-12-07T10:06:21.933Z,88.37
2022-12-07T10:11:25.705Z,88.39
2022-12-07T10:16:41.390Z,88.39
2022-12-07T10:22:06.731Z,88.28
2022-12-07T10:27:36.776Z,88.39
2022-12-07T10:32:40.498Z,88.24
2022-12-07T10:37:44.328Z,88.15
2022-12-07T10:43:21.118Z,88.07
2022-12-07T10:48:54.316Z,87.78
2022-12-07T10:54:32.360Z,87.71
2022-12-07T11:00:20.118Z,87.68
2022-12-07T11:06:01.481Z,87.32
2022-12-07T11:11:37.090Z,87.33
2022-12-07T11:17:10.611Z,87.14
2022-12-07T11:22:37.687Z,86.88
2022-12-07T11:27:54.612Z,86.76
2022-12-07T11:33:01.515Z,86.71
2022-12-07T11:38:35.836Z,86.11
2022-12-07T11:44:00.471Z,85.65
2022-12-07T11:49:41.706Z,85.76
2022-12-07T11:54:55.737Z,85.75
2022-12-07T12:00:10.508Z,85.28
2022-12-07T12:05:23.009Z,85.63
2022-12-07T12:10:57.139Z,85.86
2022-12-07T12:17:10.023Z,85.88
2022-12-07T12:22:23.608Z,85.89
2022-12-07T12:27:36.609Z,85.92
2022-12-07T12:32:44.665Z,85.47
2022-12-07T12:37:49.514Z,85.14
2022-12-07T12:42:58.189Z,84.74
2022-12-07T12:48:03.891Z,84.66
2022-12-07T12:53:29.041Z,84.74
2022-12-07T12:58:39.692Z,84.79
2022-12-07T13:03:55.542Z,84.79
2022-12-07T13:09:01.747Z,84.82
2022-12-07T13:14:42.919Z,84.82
2022-12-07T13:19:46.848Z,85.04
2022-12-07T13:24:51.053Z,85.04
2022-12-07T13:29:58.891Z,85.18
2022-12-07T13:35:36.071Z,85.32
2022-12-07T13:40:39.811Z,85.50
2022-12-07T13:45:50.037Z,85.53
2022-12-07T13:51:10.257Z,85.76
2022-12-07T13:56:17.558Z,86.04
2022-12-07T14:01:21.790Z,86.18
2022-12-07T14:06:29.544Z,86.28
2022-12-07T14:11:33.513Z,86.36
2022-12-07T14:16:40.322Z,86.56
2022-12-07T14:21:44.307Z,86.65
2022-12-07T14:26:51.490Z,86.78
2022-12-07T14:31:56.567Z,86.91
2022-12-07T14:42:52.019Z,87.43
2022-12-07T14:53:36.967Z,87.72
2022-12-07T14:58:43.194Z,87.81
2022-12-07T15:03:47.438Z,87.93
2022-12-07T15:08:52.205Z,88.17
2022-12-07T15:14:13.659Z,88.19
2022-12-07T15:19:28.321Z,88.26
2022-12-07T15:24:35.472Z,88.49
2022-12-07T15:29:39.898Z,88.56
2022-12-07T15:34:44.545Z,88.60
2022-12-07T15:39:48.548Z,88.58
2022-12-07T15:45:07.796Z,88.64
2022-12-07T15:50:16.615Z,88.79
2022-12-07T15:55:20.367Z,88.88
2022-12-07T16:00:25.575Z,88.90
2022-12-07T16:05:29.948Z,88.94
2022-12-07T16:10:37.380Z,89.00
2022-12-07T16:15:45.041Z,89.00
2022-12-07T16:20:51.934Z,89.00
2022-12-07T16:25:57.451Z,89.07
2022-12-07T16:31:11.547Z,89.03
2022-12-07T16:36:28.912Z,88.95
2022-12-07T16:41:43.525Z,88.88
2022-12-07T16:46:47.757Z,88.86
2022-12-07T16:52:14.737Z,88.86
2022-12-07T16:57:22.867Z,88.89
2022-12-07T17:02:30.709Z,89.00
2022-12-07T17:07:42.122Z,89.07
2022-12-07T17:12:54.072Z,88.94
2022-12-07T17:18:06.000Z,88.88
2022-12-07T17:23:11.025Z,88.99
2022-12-07T17:28:15.650Z,89.00
2022-12-07T17:33:21.419Z,88.96
2022-12-07T17:38:25.006Z,88.86
2022-12-07T17:43:29.285Z,88.75
2022-12-07T17:48:32.997Z,88.60
2022-12-07T17:53:36.717Z,88.43
2022-12-07T17:58:40.646Z,88.46
2022-12-07T18:03:44.165Z,88.51
2022-12-07T18:08:48.190Z,88.60
2022-12-07T18:13:51.914Z,88.56
2022-12-07T18:18:56.048Z,88.50
2022-12-07T18:24:04.863Z,88.38
2022-12-07T18:29:11.586Z,88.22
2022-12-07T18:34:18.898Z,88.02
2022-12-07T18:39:22.714Z,88.00
2022-12-07T18:44:26.540Z,87.95
2022-12-07T18:49:32.016Z,87.88
2022-12-07T18:54:36.041Z,87.65
2022-12-07T18:59:50.103Z,87.55
2022-12-07T19:04:54.555Z,87.46
2022-12-07T19:10:00.432Z,87.55
2022-12-07T19:15:06.309Z,87.63
2022-12-07T19:20:16.006Z,87.58
2022-12-07T19:25:21.278Z,87.54
2022-12-07T19:30:25.233Z,87.39
2022-12-07T19:35:29.264Z,87.29
2022-12-07T19:40:33.810Z,87.24
2022-12-07T19:45:37.767Z,87.14
2022-12-07T19:50:41.558Z,87.05
2022-12-07T19:55:47.786Z,86.95
2022-12-07T20:00:53.739Z,86.84
2022-12-07T20:05:58.824Z,86.75
2022-12-07T20:11:27.579Z,86.64
2022-12-07T20:16:32.496Z,86.57
2022-12-07T20:21:40.187Z,86.46
2022-12-07T20:26:45.864Z,86.29
2022-12-07T20:31:51.595Z,86.32
2022-12-07T20:36:56.358Z,86.30
2022-12-07T20:42:18.789Z,86.18
2022-12-07T20:47:22.626Z,86.31
2022-12-07T20:52:26.848Z,86.42
2022-12-07T20:57:31.069Z,86.54
2022-12-07T21:02:35.688Z,86.48
2022-12-07T21:07:40.071Z,86.17
2022-12-07T21:12:44.118Z,86.28
2022-12-07T21:17:48.025Z,86.28
2022-12-07T21:22:51.849Z,86.18
2022-12-07T21:27:55.677Z,85.86
2022-12-07T21:32:59.455Z,85.75
2022-12-07T21:38:03.017Z,85.68
2022-12-07T21:43:06.767Z,85.68
2022-12-07T21:48:10.622Z,85.59
2022-12-07T21:53:16.206Z,85.41
2022-12-07T21:58:19.621Z,85.21
2022-12-07T22:03:23.676Z,85.13
2022-12-07T22:08:28.167Z,84.92
2022-12-07T22:13:52.012Z,84.75
2022-12-07T22:18:57.933Z,84.71
2022-12-07T22:24:02.518Z,84.57
2022-12-07T22:29:06.041Z,84.62
2022-12-07T22:34:19.089Z,84.48
2022-12-07T22:39:23.141Z,84.24
2022-12-07T22:44:26.947Z,84.30
2022-12-07T22:49:30.783Z,84.33
2022-12-07T22:54:34.698Z,84.37
2022-12-07T22:59:38.416Z,84.43
2022-12-07T23:04:42.349Z,84.32
2022-12-07T23:09:46.372Z,84.23
2022-12-07T23:14:54.167Z,83.89
2022-12-07T23:19:57.814Z,83.39
2022-12-07T23:25:01.789Z,83.04
2022-12-07T23:30:07.010Z,82.93
2022-12-07T23:35:10.724Z,82.82
2022-12-07T23:40:14.848Z,82.85
2022-12-07T23:45:18.780Z,82.79
2022-12-07T23:50:22.499Z,82.92
2022-12-07T23:55:26.230Z,82.62
